createdAt,value
2022-08-26T00:01:56.668Z,20.88
2022-08-26T00:04:25.743Z,23.45
2022-08-26T00:06:56.028Z,19.48
2022-08-26T00:09:24.932Z,25.45
2022-08-26T00:11:54.563Z,25.88
2022-08-26T00:14:28.304Z,13.18
2022-08-26T00:16:57.193Z,22.85
2022-08-26T00:19:24.864Z,18.35
2022-08-26T00:21:51.953Z,27.50
2022-08-26T00:24:20.908Z,23.42
2022-08-26T00:26:49.876Z,17.98
2022-08-26T00:29:17.934Z,15.63
2022-08-26T00:31:45.747Z,19.35
2022-08-26T00:34:14.225Z,21.58
2022-08-26T00:36:43.556Z,19.55
2022-08-26T00:39:11.321Z,16.50
2022-08-26T00:41:40.929Z,19.75
2022-08-26T00:44:11.172Z,19.05
2022-08-26T00:46:46.924Z,11.82
2022-08-26T00:49:23.008Z,12.50
2022-08-26T00:51:58.682Z,22.77
2022-08-26T00:54:31.057Z,15.90
2022-08-26T00:57:16.386Z,24.90
2022-08-26T00:59:52.993Z,21.70
2022-08-26T01:02:21.516Z,17.45
2022-08-26T01:04:59.898Z,16.77
2022-08-26T01:07:31.455Z,16.05
2022-08-26T01:10:03.243Z,18.58
2022-08-26T01:12:40.212Z,18.40
2022-08-26T01:15:21.694Z,23.15
2022-08-26T01:17:49.803Z,21.73
2022-08-26T01:20:48.044Z,20.48
2022-08-26T01:23:16.401Z,23.02
2022-08-26T01:25:54.823Z,17.15
2022-08-26T01:28:33.826Z,20.90
2022-08-26T01:31:05.249Z,23.67
2022-08-26T01:34:02.012Z,23.80
2022-08-26T01:36:30.740Z,21.05
2022-08-26T01:38:58.069Z,30.95
2022-08-26T01:41:29.161Z,21.35
2022-08-26T01:43:57.994Z,21.98
2022-08-26T01:46:28.313Z,24.15
2022-08-26T01:49:01.117Z,19.52
2022-08-26T01:51:30.245Z,23.30
2022-08-26T01:53:58.446Z,30.02
2022-08-26T01:56:26.956Z,30.05
2022-08-26T01:59:05.667Z,27.58
2022-08-26T02:01:33.812Z,25.77
2022-08-26T02:04:22.050Z,19.83
2022-08-26T02:06:50.518Z,35.53
2022-08-26T02:09:19.748Z,36.30
2022-08-26T02:11:48.591Z,26.85
2022-08-26T02:14:28.825Z,25.33
2022-08-26T02:16:57.259Z,42.22
2022-08-26T02:19:33.118Z,31.27
2022-08-26T02:22:05.772Z,29.73
2022-08-26T02:24:57.157Z,29.13
2022-08-26T02:27:32.811Z,30.55
2022-08-26T02:30:26.453Z,27.02
2022-08-26T02:32:58.323Z,27.75
2022-08-26T02:35:25.725Z,24.40
2022-08-26T02:37:53.194Z,25.40
2022-08-26T02:40:26.546Z,28.15
2022-08-26T02:42:57.000Z,25.15
2022-08-26T02:45:26.500Z,16.83
2022-08-26T02:47:53.974Z,25.08
2022-08-26T02:50:21.361Z,24.58
2022-08-26T02:52:48.699Z,29.13
2022-08-26T02:55:16.111Z,18.27
2022-08-26T02:57:43.736Z,33.80
2022-08-26T03:00:14.718Z,26.58
2022-08-26T03:02:42.331Z,25.48
2022-08-26T03:05:11.437Z,30.35
2022-08-26T03:07:39.316Z,33.28
2022-08-26T03:10:08.725Z,33.53
2022-08-26T03:12:37.034Z,30.60
2022-08-26T03:15:17.411Z,31.15
2022-08-26T03:17:49.207Z,27.38
2022-08-26T03:20:18.546Z,28.50
2022-08-26T03:22:45.879Z,27.77
2022-08-26T03:25:16.672Z,30.75
2022-08-26T03:27:44.396Z,29.50
2022-08-26T03:30:33.490Z,31.80
2022-08-26T03:33:01.996Z,33.15
2022-08-26T03:35:30.154Z,38.97
2022-08-26T03:37:57.372Z,33.90
2022-08-26T03:40:24.828Z,43.72
2022-08-26T03:42:56.180Z,40.90
2022-08-26T03:45:23.392Z,33.05
2022-08-26T03:47:51.615Z,29.92
2022-08-26T03:50:24.321Z,44.17
2022-08-26T03:52:54.243Z,37.67
2022-08-26T03:55:25.339Z,36.75
2022-08-26T03:57:54.805Z,34.08
2022-08-26T04:00:22.774Z,35.17
2022-08-26T04:02:53.445Z,38.92
2022-08-26T04:05:22.979Z,37.20
2022-08-26T04:07:51.313Z,41.67
2022-08-26T04:10:29.170Z,42.67
2022-08-26T04:13:00.177Z,35.20
2022-08-26T04:15:28.073Z,33.67
2022-08-26T04:17:55.849Z,43.35
2022-08-26T04:20:23.209Z,40.67
2022-08-26T04:22:51.111Z,38.78
2022-08-26T04:25:18.680Z,44.00
2022-08-26T04:27:48.432Z,41.80
2022-08-26T04:30:16.705Z,36.90
2022-08-26T04:32:44.114Z,44.25
2022-08-26T04:35:11.400Z,43.67
2022-08-26T04:37:38.565Z,49.63
2022-08-26T04:40:06.774Z,44.50
2022-08-26T04:42:34.326Z,41.80
2022-08-26T04:45:05.817Z,35.92
2022-08-26T04:47:37.565Z,35.50
2022-08-26T04:50:06.970Z,41.95
2022-08-26T04:52:36.593Z,34.15
2022-08-26T04:55:06.526Z,37.70
2022-08-26T04:57:36.086Z,39.25
2022-08-26T05:00:07.854Z,32.40
2022-08-26T05:02:36.190Z,45.47
2022-08-26T05:05:06.979Z,34.05
2022-08-26T05:07:35.732Z,32.05
2022-08-26T05:10:04.754Z,40.33
2022-08-26T05:12:36.030Z,32.72
2022-08-26T05:15:05.971Z,41.58
2022-08-26T05:17:33.410Z,51.22
2022-08-26T05:20:00.486Z,43.95
2022-08-26T05:22:27.492Z,41.35
2022-08-26T05:24:54.482Z,34.67
2022-08-26T05:27:21.564Z,46.28
2022-08-26T05:29:48.578Z,49.83
2022-08-26T05:32:21.616Z,67.88
2022-08-26T05:34:48.593Z,55.28
2022-08-26T05:37:19.615Z,32.45
2022-08-26T05:39:51.399Z,36.85
2022-08-26T05:42:19.884Z,34.80
2022-08-26T05:44:56.108Z,57.13
2022-08-26T05:47:25.364Z,45.63
2022-08-26T05:49:53.051Z,34.92
2022-08-26T05:52:20.434Z,45.17
2022-08-26T05:54:47.643Z,47.63
2022-08-26T05:57:15.293Z,32.60
2022-08-26T05:59:42.600Z,40.17
2022-08-26T06:02:10.126Z,44.70
2022-08-26T06:04:37.084Z,36.22
2022-08-26T06:07:04.138Z,35.20
2022-08-26T06:09:32.720Z,44.25
2022-08-26T06:12:01.767Z,38.33
2022-08-26T06:14:30.487Z,39.80
2022-08-26T06:17:00.782Z,37.65
2022-08-26T06:19:33.142Z,61.30
2022-08-26T06:22:23.506Z,43.38
2022-08-26T06:25:09.280Z,35.00
2022-08-26T06:27:37.002Z,42.83
2022-08-26T06:30:04.653Z,36.22
2022-08-26T06:32:31.880Z,38.60
2022-08-26T06:34:59.138Z,43.83
2022-08-26T06:37:26.144Z,29.15
2022-08-26T06:39:53.181Z,35.45
2022-08-26T06:42:20.385Z,57.00
2022-08-26T06:44:47.462Z,69.22
2022-08-26T06:47:15.123Z,45.78
2022-08-26T06:49:42.148Z,41.38
2022-08-26T06:52:11.318Z,31.20
2022-08-26T06:54:43.050Z,42.65
2022-08-26T06:57:12.436Z,36.53
2022-08-26T06:59:41.585Z,37.50
2022-08-26T07:02:08.632Z,69.25
2022-08-26T07:04:41.044Z,50.13
2022-08-26T07:07:09.748Z,51.33
2022-08-26T07:09:37.409Z,42.65
2022-08-26T07:12:06.841Z,33.67
2022-08-26T07:14:34.993Z,34.50
2022-08-26T07:17:02.228Z,30.27
2022-08-26T07:19:30.944Z,31.70
2022-08-26T07:22:02.036Z,29.38
2022-08-26T07:24:29.665Z,38.88
2022-08-26T07:27:06.515Z,39.42
2022-08-26T07:29:35.247Z,35.05
2022-08-26T07:32:03.220Z,59.85
2022-08-26T07:34:32.179Z,66.05
2022-08-26T07:37:01.080Z,43.67
2022-08-26T07:39:28.786Z,41.38
2022-08-26T07:42:01.582Z,53.75
2022-08-26T07:44:35.631Z,31.45
2022-08-26T07:47:02.679Z,50.92
2022-08-26T07:49:29.954Z,42.75
2022-08-26T07:51:57.466Z,37.97
2022-08-26T07:54:26.814Z,38.08
2022-08-26T07:56:55.905Z,43.97
2022-08-26T07:59:24.038Z,41.40
2022-08-26T08:01:51.595Z,51.67
2022-08-26T08:04:25.548Z,36.70
2022-08-26T08:06:54.410Z,42.10
2022-08-26T08:09:22.372Z,37.45
2022-08-26T08:11:50.108Z,38.60
2022-08-26T08:14:20.466Z,28.85
2022-08-26T08:16:53.312Z,37.97
2022-08-26T08:19:23.208Z,40.75
2022-08-26T08:21:51.555Z,33.67
2022-08-26T08:24:19.350Z,32.72
2022-08-26T08:26:46.421Z,34.22
2022-08-26T08:29:14.214Z,25.33
2022-08-26T08:31:58.455Z,40.83
2022-08-26T08:34:28.652Z,41.97
2022-08-26T08:36:57.223Z,47.28
2022-08-26T08:39:26.382Z,35.42
2022-08-26T08:42:30.981Z,32.20
2022-08-26T08:45:04.956Z,25.83
2022-08-26T08:47:38.988Z,29.42
2022-08-26T08:50:22.991Z,36.63
2022-08-26T08:53:16.475Z,29.23
2022-08-26T08:56:26.548Z,38.67
2022-08-26T08:59:11.327Z,27.30
2022-08-26T09:01:58.972Z,32.30
2022-08-26T09:05:07.853Z,29.92
2022-08-26T09:07:44.640Z,32.47
2022-08-26T09:10:34.694Z,33.33
2022-08-26T09:13:08.031Z,33.78
2022-08-26T09:15:50.840Z,35.00
2022-08-26T09:18:51.326Z,22.75
2022-08-26T09:21:21.109Z,30.13
2022-08-26T09:23:52.275Z,32.80
2022-08-26T09:26:36.372Z,32.70
2022-08-26T09:29:24.071Z,29.33
2022-08-26T09:32:12.926Z,37.55
2022-08-26T09:35:03.440Z,29.08
2022-08-26T09:37:40.900Z,32.28
2022-08-26T09:40:29.602Z,30.40
2022-08-26T09:43:15.892Z,29.85
2022-08-26T09:45:50.847Z,24.73
2022-08-26T09:48:36.343Z,22.88
2022-08-26T09:51:26.511Z,27.23
2022-08-26T09:54:02.983Z,25.02
2022-08-26T09:56:39.676Z,25.25
2022-08-26T09:59:11.307Z,30.83
2022-08-26T10:01:44.747Z,33.60
2022-08-26T10:04:14.580Z,38.97
2022-08-26T10:06:56.219Z,31.77
2022-08-26T10:09:26.471Z,28.30
2022-08-26T10:12:11.957Z,29.55
2022-08-26T10:14:47.961Z,27.88
2022-08-26T10:17:30.924Z,29.13
2022-08-26T10:20:24.071Z,34.03
2022-08-26T10:23:12.921Z,26.77
2022-08-26T10:26:27.368Z,35.28
2022-08-26T10:29:12.279Z,33.13
2022-08-26T10:32:02.646Z,32.38
2022-08-26T10:34:33.360Z,33.67
2022-08-26T10:37:15.747Z,26.88
2022-08-26T10:40:08.079Z,35.30
2022-08-26T10:42:52.195Z,29.70
2022-08-26T10:45:25.391Z,25.35
2022-08-26T10:48:11.675Z,24.08
2022-08-26T10:50:43.182Z,32.05
2022-08-26T10:53:45.112Z,32.58
2022-08-26T10:56:37.133Z,25.65
2022-08-26T10:59:39.986Z,25.80
2022-08-26T11:02:40.154Z,28.40
2022-08-26T11:05:23.617Z,29.63
2022-08-26T11:08:20.495Z,25.88
2022-08-26T11:10:55.420Z,27.60
2022-08-26T11:14:28.992Z,25.00
2022-08-26T11:16:58.929Z,29.70
2022-08-26T11:19:59.502Z,25.70
2022-08-26T11:22:36.313Z,29.88
2022-08-26T11:25:11.457Z,29.33
2022-08-26T11:27:38.927Z,31.85
2022-08-26T11:30:18.451Z,36.33
2022-08-26T11:32:59.002Z,29.48
2022-08-26T11:35:26.654Z,27.73
2022-08-26T11:38:24.129Z,34.70
2022-08-26T11:41:17.501Z,35.00
2022-08-26T11:43:49.321Z,27.85
2022-08-26T11:46:27.294Z,28.85
2022-08-26T11:49:14.738Z,34.75
2022-08-26T11:51:45.230Z,41.22
2022-08-26T11:54:30.498Z,34.70
2022-08-26T11:57:09.367Z,31.90
2022-08-26T11:59:41.881Z,28.23
2022-08-26T12:02:17.947Z,25.80
2022-08-26T12:04:50.622Z,36.17
2022-08-26T12:07:27.612Z,30.83
2022-08-26T12:10:02.484Z,30.23
2022-08-26T12:12:35.059Z,29.27
2022-08-26T12:15:18.641Z,23.52
2022-08-26T12:17:51.790Z,32.08
2022-08-26T12:20:45.952Z,27.25
2022-08-26T12:23:28.229Z,22.55
2022-08-26T12:26:31.165Z,28.15
2022-08-26T12:29:19.688Z,28.88
2022-08-26T12:31:48.469Z,32.67
2022-08-26T12:34:18.528Z,33.47
2022-08-26T12:36:55.534Z,27.88
2022-08-26T12:39:30.398Z,24.13
2022-08-26T12:42:20.671Z,30.70
2022-08-26T12:45:03.869Z,30.92
2022-08-26T12:47:42.130Z,31.85
2022-08-26T12:50:32.452Z,31.73
2022-08-26T12:53:34.884Z,36.25
2022-08-26T12:56:19.334Z,36.00
2022-08-26T12:59:22.641Z,25.77
2022-08-26T13:01:50.785Z,34.72
2022-08-26T13:04:37.899Z,29.55
2022-08-26T13:07:25.275Z,27.42
2022-08-26T13:09:58.124Z,32.47
2022-08-26T13:12:41.066Z,31.35
2022-08-26T13:15:08.608Z,24.80
2022-08-26T13:17:36.058Z,27.83
2022-08-26T13:20:04.554Z,19.45
2022-08-26T13:22:32.341Z,18.15
2022-08-26T13:24:59.539Z,18.38
2022-08-26T13:27:27.939Z,14.60
2022-08-26T13:29:57.643Z,21.35
2022-08-26T13:32:27.197Z,16.35
2022-08-26T13:34:56.695Z,17.92
2022-08-26T13:37:35.066Z,13.38
2022-08-26T13:40:07.008Z,11.65
2022-08-26T13:42:34.643Z,14.13
2022-08-26T13:45:03.444Z,21.40
2022-08-26T13:47:30.810Z,20.05
2022-08-26T13:49:58.260Z,26.55
2022-08-26T13:52:30.332Z,22.45
2022-08-26T13:55:00.585Z,18.88
2022-08-26T13:57:30.499Z,21.90
2022-08-26T13:59:59.587Z,19.70
2022-08-26T14:02:28.303Z,25.23
2022-08-26T14:04:55.980Z,22.85
2022-08-26T14:07:23.409Z,17.65
2022-08-26T14:09:50.587Z,17.20
2022-08-26T14:12:18.047Z,23.42
2022-08-26T14:14:45.137Z,32.97
2022-08-26T14:17:20.521Z,11.80
2022-08-26T14:19:50.536Z,17.52
2022-08-26T14:22:21.299Z,13.70
2022-08-26T14:24:50.272Z,19.17
2022-08-26T14:27:17.541Z,16.48
2022-08-26T14:29:44.647Z,14.68
2022-08-26T14:32:26.120Z,16.38
2022-08-26T14:34:54.163Z,16.60
2022-08-26T14:37:21.551Z,12.73
2022-08-26T14:39:48.716Z,14.88
2022-08-26T14:42:25.813Z,13.57
2022-08-26T14:45:02.530Z,15.32
2022-08-26T14:47:29.755Z,15.63
2022-08-26T14:49:57.737Z,17.50
2022-08-26T14:52:25.487Z,16.02
2022-08-26T14:54:55.107Z,15.82
2022-08-26T14:57:22.854Z,15.13
2022-08-26T14:59:50.525Z,12.70
2022-08-26T15:02:32.626Z,17.00
2022-08-26T15:05:06.491Z,16.50
2022-08-26T15:07:33.553Z,20.60
2022-08-26T15:10:00.823Z,13.35
2022-08-26T15:12:28.007Z,17.85
2022-08-26T15:14:55.121Z,12.75
2022-08-26T15:17:22.335Z,17.80
2022-08-26T15:19:49.379Z,18.30
2022-08-26T15:22:16.737Z,19.10
2022-08-26T15:24:43.901Z,13.57
2022-08-26T15:27:11.373Z,21.77
2022-08-26T15:29:39.149Z,21.40
2022-08-26T15:32:06.369Z,18.88
2022-08-26T15:34:33.468Z,16.60
2022-08-26T15:37:00.521Z,23.25
2022-08-26T15:39:28.391Z,21.23
2022-08-26T15:41:56.207Z,21.65
2022-08-26T15:44:26.016Z,19.70
2022-08-26T15:46:58.605Z,20.60
2022-08-26T15:49:27.501Z,17.77
2022-08-26T15:51:55.011Z,20.90
2022-08-26T15:54:23.679Z,18.85
2022-08-26T15:56:52.436Z,16.20
2022-08-26T15:59:22.197Z,24.33
2022-08-26T16:01:50.780Z,13.80
2022-08-26T16:04:18.685Z,21.10
2022-08-26T16:06:50.219Z,22.15
2022-08-26T16:09:19.368Z,19.45
2022-08-26T16:11:46.651Z,26.83
2022-08-26T16:14:14.094Z,22.25
2022-08-26T16:16:41.917Z,29.38
2022-08-26T16:19:09.667Z,19.13
2022-08-26T16:21:39.573Z,24.25
2022-08-26T16:24:07.832Z,25.67
2022-08-26T16:26:37.786Z,23.48
2022-08-26T16:29:09.576Z,23.42
2022-08-26T16:31:38.329Z,23.73
2022-08-26T16:34:07.893Z,20.38
2022-08-26T16:36:38.123Z,22.02
2022-08-26T16:39:08.319Z,22.23
2022-08-26T16:41:36.201Z,27.23
2022-08-26T16:44:04.834Z,33.65
2022-08-26T16:46:33.997Z,27.40
2022-08-26T16:49:04.296Z,20.55
2022-08-26T16:51:32.623Z,25.88
2022-08-26T16:54:07.616Z,18.40
2022-08-26T16:56:36.503Z,30.52
2022-08-26T16:59:11.911Z,21.25
2022-08-26T17:01:40.077Z,22.35
2022-08-26T17:04:07.403Z,26.63
2022-08-26T17:06:44.477Z,17.88
2022-08-26T17:09:12.389Z,20.65
2022-08-26T17:11:39.615Z,20.13
2022-08-26T17:14:06.925Z,23.33
2022-08-26T17:16:34.515Z,23.45
2022-08-26T17:19:02.370Z,26.85
2022-08-26T17:21:29.599Z,19.23
2022-08-26T17:23:56.746Z,21.85
2022-08-26T17:26:24.070Z,22.90
2022-08-26T17:28:51.996Z,20.38
2022-08-26T17:31:20.820Z,24.20
2022-08-26T17:33:53.769Z,23.23
2022-08-26T17:36:27.504Z,22.08
2022-08-26T17:38:57.932Z,15.73
2022-08-26T17:41:26.516Z,25.10
2022-08-26T17:43:53.941Z,20.25
2022-08-26T17:46:21.364Z,24.42
2022-08-26T17:48:48.512Z,22.20
2022-08-26T17:51:19.266Z,20.65
2022-08-26T17:53:47.987Z,26.65
2022-08-26T17:56:19.376Z,22.02
2022-08-26T17:58:51.086Z,23.55
2022-08-26T18:01:20.464Z,35.00
2022-08-26T18:03:48.942Z,21.08
2022-08-26T18:06:16.010Z,26.27
2022-08-26T18:08:43.970Z,26.52
2022-08-26T18:11:14.666Z,27.30
2022-08-26T18:13:47.404Z,24.73
2022-08-26T18:16:17.959Z,23.83
2022-08-26T18:18:47.213Z,31.00
2022-08-26T18:21:18.673Z,24.20
2022-08-26T18:23:47.599Z,28.67
2022-08-26T18:26:28.166Z,27.88
2022-08-26T18:29:07.427Z,21.08
2022-08-26T18:31:35.177Z,25.77
2022-08-26T18:34:03.694Z,29.88
2022-08-26T18:36:35.784Z,24.23
2022-08-26T18:39:05.554Z,34.95
2022-08-26T18:41:38.513Z,31.58
2022-08-26T18:44:05.572Z,29.40
2022-08-26T18:46:32.657Z,21.55
2022-08-26T18:48:59.797Z,32.95
2022-08-26T18:51:32.899Z,32.95
2022-08-26T18:54:02.725Z,24.30
2022-08-26T18:56:30.565Z,31.33
2022-08-26T18:58:59.761Z,31.73
2022-08-26T19:01:29.496Z,34.35
2022-08-26T19:03:59.510Z,23.38
2022-08-26T19:06:31.502Z,25.60
2022-08-26T19:09:00.089Z,29.65
2022-08-26T19:11:32.135Z,27.13
2022-08-26T19:14:01.831Z,29.58
2022-08-26T19:16:31.049Z,28.52
2022-08-26T19:19:01.024Z,31.73
2022-08-26T19:21:29.604Z,27.70
2022-08-26T19:24:03.379Z,22.63
2022-08-26T19:26:31.664Z,24.23
2022-08-26T19:28:59.566Z,26.63
2022-08-26T19:31:27.198Z,23.60
2022-08-26T19:33:54.377Z,28.73
2022-08-26T19:36:25.355Z,30.42
2022-08-26T19:38:53.703Z,27.20
2022-08-26T19:41:36.457Z,23.98
2022-08-26T19:44:12.853Z,25.40
2022-08-26T19:46:40.937Z,27.67
2022-08-26T19:49:08.309Z,27.27
2022-08-26T19:51:36.558Z,27.40
2022-08-26T19:54:04.441Z,34.05
2022-08-26T19:56:31.945Z,34.15
2022-08-26T19:59:14.377Z,30.55
2022-08-26T20:01:41.429Z,30.58
2022-08-26T20:04:08.523Z,26.83
2022-08-26T20:06:35.573Z,27.83
2022-08-26T20:09:02.547Z,27.90
2022-08-26T20:11:29.791Z,34.50
2022-08-26T20:13:57.138Z,25.13
2022-08-26T20:16:24.207Z,29.58
2022-08-26T20:19:09.529Z,25.70
2022-08-26T20:21:39.763Z,24.23
2022-08-26T20:24:16.361Z,32.65
2022-08-26T20:26:45.179Z,28.02
2022-08-26T20:29:15.963Z,28.55
2022-08-26T20:31:44.162Z,22.52
2022-08-26T20:34:13.312Z,19.52
2022-08-26T20:36:44.135Z,29.05
2022-08-26T20:39:12.856Z,26.65
2022-08-26T20:41:43.923Z,29.67
2022-08-26T20:44:12.167Z,31.38
2022-08-26T20:46:39.965Z,23.38
2022-08-26T20:49:07.585Z,20.10
2022-08-26T20:51:37.301Z,22.60
2022-08-26T20:54:07.038Z,26.27
2022-08-26T20:56:34.389Z,27.95
2022-08-26T20:59:02.486Z,24.67
2022-08-26T21:01:34.786Z,21.95
2022-08-26T21:04:06.920Z,23.50
2022-08-26T21:06:36.220Z,27.85
2022-08-26T21:09:08.488Z,21.75
2022-08-26T21:11:44.577Z,25.63
2022-08-26T21:14:16.004Z,18.98
2022-08-26T21:16:46.301Z,22.58
2022-08-26T21:19:18.010Z,25.63
2022-08-26T21:21:48.158Z,28.65
2022-08-26T21:24:15.799Z,20.75
2022-08-26T21:26:43.774Z,24.17
2022-08-26T21:29:11.037Z,27.50
2022-08-26T21:31:44.859Z,27.60
2022-08-26T21:34:15.892Z,23.88
2022-08-26T21:36:43.307Z,26.65
2022-08-26T21:39:11.982Z,24.08
2022-08-26T21:41:42.051Z,28.05
2022-08-26T21:44:10.552Z,21.73
2022-08-26T21:46:37.767Z,22.85
2022-08-26T21:49:09.916Z,25.90
2022-08-26T21:51:43.194Z,20.45
2022-08-26T21:54:11.728Z,25.17
2022-08-26T21:56:46.507Z,23.27
2022-08-26T21:59:18.100Z,22.75
2022-08-26T22:01:45.808Z,24.77
2022-08-26T22:04:13.112Z,23.45
2022-08-26T22:06:45.038Z,25.30
2022-08-26T22:09:14.557Z,17.77
2022-08-26T22:11:42.023Z,24.00
2022-08-26T22:14:10.526Z,29.83
2022-08-26T22:16:38.256Z,29.17
2022-08-26T22:19:06.108Z,21.17
2022-08-26T22:21:35.669Z,24.15
2022-08-26T22:24:03.974Z,21.92
2022-08-26T22:26:33.133Z,25.33
2022-08-26T22:29:02.133Z,17.52
2022-08-26T22:31:37.864Z,24.95
2022-08-26T22:34:11.324Z,25.48
2022-08-26T22:36:43.978Z,24.77
2022-08-26T22:39:24.044Z,18.45
2022-08-26T22:41:53.549Z,20.45
2022-08-26T22:44:22.475Z,17.90
2022-08-26T22:46:54.276Z,24.88
2022-08-26T22:49:21.791Z,22.17
2022-08-26T22:51:49.277Z,22.55
2022-08-26T22:54:17.380Z,26.73
2022-08-26T22:56:45.435Z,21.95
2022-08-26T22:59:13.495Z,22.45
2022-08-26T23:01:43.457Z,23.58
2022-08-26T23:04:11.124Z,21.90
2022-08-26T23:06:43.059Z,22.77
2022-08-26T23:09:11.693Z,27.75
2022-08-26T23:11:43.011Z,26.25
2022-08-26T23:14:11.127Z,23.73
2022-08-26T23:16:41.859Z,23.50
2022-08-26T23:19:13.011Z,24.02
2022-08-26T23:21:40.702Z,26.00
2022-08-26T23:24:09.223Z,19.75
2022-08-26T23:26:38.197Z,21.58
2022-08-26T23:29:09.008Z,25.48
2022-08-26T23:31:39.211Z,23.00
2022-08-26T23:34:25.273Z,22.55
2022-08-26T23:36:53.883Z,24.85
2022-08-26T23:39:21.386Z,23.33
2022-08-26T23:41:48.537Z,19.50
2022-08-26T23:44:15.660Z,21.55
2022-08-26T23:46:42.923Z,21.13
2022-08-26T23:49:10.157Z,22.25
2022-08-26T23:51:57.683Z,23.80
2022-08-26T23:54:24.874Z,18.25
2022-08-26T23:56:52.017Z,20.05
2022-08-26T23:59:19.251Z,25.85
